sensor_id;sensor_type;location;lat;lon;timestamp;P1;durP1;ratioP1;P2;durP2;ratioP2
36855;SDS011;22788;51.434;6.786;2022-10-16T00:02:09;2.85;;;1.90;;
36855;SDS011;22788;51.434;6.786;2022-10-16T00:04:35;3.92;;;2.28;;
36855;SDS011;22788;51.434;6.786;2022-10-16T00:07:01;3.00;;;1.52;;
36855;SDS011;22788;51.434;6.786;2022-10-16T00:09:27;2.95;;;1.92;;
36855;SDS011;22788;51.434;6.786;2022-10-16T00:11:53;2.90;;;1.90;;
36855;SDS011;22788;51.434;6.786;2022-10-16T00:14:19;2.65;;;2.05;;
36855;SDS011;22788;51.434;6.786;2022-10-16T00:16:47;3.97;;;1.75;;
36855;SDS011;22788;51.434;6.786;2022-10-16T00:19:13;2.53;;;1.95;;
36855;SDS011;22788;51.434;6.786;2022-10-16T00:21:39;2.92;;;2.20;;
36855;SDS011;22788;51.434;6.786;2022-10-16T00:24:06;4.07;;;1.80;;
36855;SDS011;22788;51.434;6.786;2022-10-16T00:26:33;2.38;;;2.00;;
36855;SDS011;22788;51.434;6.786;2022-10-16T00:29:00;3.40;;;1.75;;
36855;SDS011;22788;51.434;6.786;2022-10-16T00:31:27;4.05;;;1.80;;
36855;SDS011;22788;51.434;6.786;2022-10-16T00:33:54;3.95;;;1.77;;
36855;SDS011;22788;51.434;6.786;2022-10-16T00:36:22;2.58;;;2.10;;
36855;SDS011;22788;51.434;6.786;2022-10-16T00:38:49;1.83;;;1.60;;
36855;SDS011;22788;51.434;6.786;2022-10-16T00:41:17;1.88;;;1.77;;
36855;SDS011;22788;51.434;6.786;2022-10-16T00:43:43;2.05;;;1.67;;
36855;SDS011;22788;51.434;6.786;2022-10-16T00:46:13;2.63;;;1.88;;
36855;SDS011;22788;51.434;6.786;2022-10-16T00:48:43;2.60;;;1.88;;
36855;SDS011;22788;51.434;6.786;2022-10-16T00:51:14;3.33;;;2.08;;
36855;SDS011;22788;51.434;6.786;2022-10-16T00:53:43;2.65;;;1.90;;
36855;SDS011;22788;51.434;6.786;2022-10-16T00:56:09;3.75;;;2.22;;
36855;SDS011;22788;51.434;6.786;2022-10-16T00:58:36;2.67;;;1.70;;
36855;SDS011;22788;51.434;6.786;2022-10-16T01:01:02;2.00;;;1.77;;
36855;SDS011;22788;51.434;6.786;2022-10-16T01:03:29;3.45;;;2.15;;
36855;SDS011;22788;51.434;6.786;2022-10-16T01:06:09;4.00;;;2.30;;
36855;SDS011;22788;51.434;6.786;2022-10-16T01:08:49;5.13;;;2.10;;
36855;SDS011;22788;51.434;6.786;2022-10-16T01:11:30;2.72;;;2.00;;
36855;SDS011;22788;51.434;6.786;2022-10-16T01:14:02;3.33;;;2.03;;
36855;SDS011;22788;51.434;6.786;2022-10-16T01:16:37;3.78;;;2.10;;
36855;SDS011;22788;51.434;6.786;2022-10-16T01:19:09;2.13;;;1.70;;
36855;SDS011;22788;51.434;6.786;2022-10-16T01:21:43;2.60;;;1.85;;
36855;SDS011;22788;51.434;6.786;2022-10-16T01:24:15;2.20;;;2.00;;
36855;SDS011;22788;51.434;6.786;2022-10-16T01:26:57;2.50;;;2.05;;
36855;SDS011;22788;51.434;6.786;2022-10-16T01:29:39;4.43;;;2.10;;
36855;SDS011;22788;51.434;6.786;2022-10-16T01:32:15;2.20;;;1.80;;
36855;SDS011;22788;51.434;6.786;2022-10-16T01:34:45;2.38;;;1.73;;
36855;SDS011;22788;51.434;6.786;2022-10-16T01:37:15;2.58;;;1.90;;
36855;SDS011;22788;51.434;6.786;2022-10-16T01:39:50;3.88;;;2.00;;
36855;SDS011;22788;51.434;6.786;2022-10-16T01:42:22;3.40;;;2.10;;
36855;SDS011;22788;51.434;6.786;2022-10-16T01:44:52;2.80;;;2.20;;
36855;SDS011;22788;51.434;6.786;2022-10-16T01:47:19;2.75;;;2.05;;
36855;SDS011;22788;51.434;6.786;2022-10-16T01:49:49;2.80;;;2.10;;
36855;SDS011;22788;51.434;6.786;2022-10-16T01:52:18;2.45;;;2.03;;
36855;SDS011;22788;51.434;6.786;2022-10-16T01:54:47;2.85;;;1.90;;
36855;SDS011;22788;51.434;6.786;2022-10-16T01:57:17;2.25;;;1.70;;
36855;SDS011;22788;51.434;6.786;2022-10-16T01:59:48;2.63;;;2.03;;
36855;SDS011;22788;51.434;6.786;2022-10-16T02:02:19;3.83;;;2.25;;
36855;SDS011;22788;51.434;6.786;2022-10-16T02:04:48;2.40;;;2.00;;
36855;SDS011;22788;51.434;6.786;2022-10-16T02:07:18;2.22;;;1.75;;
36855;SDS011;22788;51.434;6.786;2022-10-16T02:09:44;2.72;;;2.05;;
36855;SDS011;22788;51.434;6.786;2022-10-16T02:12:12;4.10;;;2.25;;
36855;SDS011;22788;51.434;6.786;2022-10-16T02:14:41;2.45;;;1.80;;
36855;SDS011;22788;51.434;6.786;2022-10-16T02:17:12;2.08;;;1.80;;
36855;SDS011;22788;51.434;6.786;2022-10-16T02:19:40;4.60;;;1.92;;
36855;SDS011;22788;51.434;6.786;2022-10-16T02:22:10;2.13;;;1.65;;
36855;SDS011;22788;51.434;6.786;2022-10-16T02:24:43;1.80;;;1.58;;
36855;SDS011;22788;51.434;6.786;2022-10-16T02:27:17;1.75;;;1.50;;
36855;SDS011;22788;51.434;6.786;2022-10-16T02:29:49;3.20;;;1.98;;
36855;SDS011;22788;51.434;6.786;2022-10-16T02:32:21;2.40;;;1.95;;
36855;SDS011;22788;51.434;6.786;2022-10-16T02:34:49;5.30;;;1.88;;
36855;SDS011;22788;51.434;6.786;2022-10-16T02:37:16;4.50;;;2.10;;
36855;SDS011;22788;51.434;6.786;2022-10-16T02:39:44;2.22;;;1.95;;
36855;SDS011;22788;51.434;6.786;2022-10-16T02:42:10;2.05;;;1.70;;
36855;SDS011;22788;51.434;6.786;2022-10-16T02:44:37;1.60;;;1.50;;
36855;SDS011;22788;51.434;6.786;2022-10-16T02:47:03;2.92;;;1.75;;
36855;SDS011;22788;51.434;6.786;2022-10-16T02:49:30;4.18;;;1.70;;
36855;SDS011;22788;51.434;6.786;2022-10-16T02:51:56;3.08;;;1.92;;
36855;SDS011;22788;51.434;6.786;2022-10-16T02:54:22;2.90;;;1.70;;
36855;SDS011;22788;51.434;6.786;2022-10-16T02:56:48;2.88;;;1.73;;
36855;SDS011;22788;51.434;6.786;2022-10-16T02:59:15;2.22;;;1.55;;
36855;SDS011;22788;51.434;6.786;2022-10-16T03:01:41;3.90;;;1.45;;
36855;SDS011;22788;51.434;6.786;2022-10-16T03:04:07;2.03;;;1.83;;
36855;SDS011;22788;51.434;6.786;2022-10-16T03:06:35;3.00;;;1.80;;
36855;SDS011;22788;51.434;6.786;2022-10-16T03:09:01;2.67;;;1.50;;
36855;SDS011;22788;51.434;6.786;2022-10-16T03:11:27;1.95;;;1.60;;
36855;SDS011;22788;51.434;6.786;2022-10-16T03:13:53;2.35;;;1.70;;
36855;SDS011;22788;51.434;6.786;2022-10-16T03:16:19;2.25;;;1.50;;
36855;SDS011;22788;51.434;6.786;2022-10-16T03:18:47;1.83;;;1.55;;
36855;SDS011;22788;51.434;6.786;2022-10-16T03:21:14;3.33;;;1.85;;
36855;SDS011;22788;51.434;6.786;2022-10-16T03:23:41;1.90;;;1.70;;
36855;SDS011;22788;51.434;6.786;2022-10-16T03:26:07;2.55;;;1.45;;
36855;SDS011;22788;51.434;6.786;2022-10-16T03:28:33;2.95;;;1.60;;
36855;SDS011;22788;51.434;6.786;2022-10-16T03:30:59;2.05;;;1.67;;
36855;SDS011;22788;51.434;6.786;2022-10-16T03:33:25;1.73;;;1.63;;
36855;SDS011;22788;51.434;6.786;2022-10-16T03:35:51;1.92;;;1.42;;
36855;SDS011;22788;51.434;6.786;2022-10-16T03:38:17;2.63;;;1.40;;
36855;SDS011;22788;51.434;6.786;2022-10-16T03:40:45;1.52;;;1.30;;
36855;SDS011;22788;51.434;6.786;2022-10-16T03:43:11;2.00;;;1.50;;
36855;SDS011;22788;51.434;6.786;2022-10-16T03:45:37;2.30;;;1.45;;
36855;SDS011;22788;51.434;6.786;2022-10-16T03:48:03;1.67;;;1.58;;
36855;SDS011;22788;51.434;6.786;2022-10-16T03:50:29;1.65;;;1.20;;
36855;SDS011;22788;51.434;6.786;2022-10-16T03:52:56;3.08;;;1.35;;
36855;SDS011;22788;51.434;6.786;2022-10-16T03:55:22;2.33;;;1.65;;
36855;SDS011;22788;51.434;6.786;2022-10-16T03:57:50;1.50;;;1.38;;
36855;SDS011;22788;51.434;6.786;2022-10-16T04:00:16;3.45;;;1.58;;
36855;SDS011;22788;51.434;6.786;2022-10-16T04:02:42;2.13;;;1.40;;
36855;SDS011;22788;51.434;6.786;2022-10-16T04:05:08;1.45;;;1.33;;
36855;SDS011;22788;51.434;6.786;2022-10-16T04:07:34;1.27;;;1.17;;
36855;SDS011;22788;51.434;6.786;2022-10-16T04:10:00;1.48;;;1.20;;
36855;SDS011;22788;51.434;6.786;2022-10-16T04:12:27;1.55;;;1.23;;
36855;SDS011;22788;51.434;6.786;2022-10-16T04:14:54;3.70;;;1.25;;
36855;SDS011;22788;51.434;6.786;2022-10-16T04:17:20;2.53;;;1.40;;
36855;SDS011;22788;51.434;6.786;2022-10-16T04:19:47;1.38;;;1.27;;
36855;SDS011;22788;51.434;6.786;2022-10-16T04:22:13;1.63;;;1.38;;
36855;SDS011;22788;51.434;6.786;2022-10-16T04:24:41;1.50;;;1.20;;
36855;SDS011;22788;51.434;6.786;2022-10-16T04:27:07;2.92;;;1.25;;
36855;SDS011;22788;51.434;6.786;2022-10-16T04:29:33;1.55;;;1.35;;
36855;SDS011;22788;51.434;6.786;2022-10-16T04:32:01;1.75;;;1.42;;
36855;SDS011;22788;51.434;6.786;2022-10-16T04:34:27;1.40;;;1.30;;
36855;SDS011;22788;51.434;6.786;2022-10-16T04:36:53;2.03;;;1.20;;
36855;SDS011;22788;51.434;6.786;2022-10-16T04:39:19;1.33;;;1.23;;
36855;SDS011;22788;51.434;6.786;2022-10-16T04:41:45;1.63;;;1.20;;
36855;SDS011;22788;51.434;6.786;2022-10-16T04:44:11;1.10;;;0.93;;
36855;SDS011;22788;51.434;6.786;2022-10-16T04:46:37;1.63;;;1.17;;
36855;SDS011;22788;51.434;6.786;2022-10-16T04:49:05;1.60;;;1.23;;
36855;SDS011;22788;51.434;6.786;2022-10-16T04:51:31;2.85;;;1.63;;
36855;SDS011;22788;51.434;6.786;2022-10-16T04:53:57;2.30;;;1.63;;
36855;SDS011;22788;51.434;6.786;2022-10-16T04:56:23;1.50;;;1.23;;
36855;SDS011;22788;51.434;6.786;2022-10-16T04:58:49;1.75;;;1.40;;
36855;SDS011;22788;51.434;6.786;2022-10-16T05:01:15;1.40;;;1.25;;
36855;SDS011;22788;51.434;6.786;2022-10-16T05:03:41;1.20;;;1.10;;
36855;SDS011;22788;51.434;6.786;2022-10-16T05:06:08;2.25;;;1.38;;
36855;SDS011;22788;51.434;6.786;2022-10-16T05:08:36;1.20;;;1.10;;
36855;SDS011;22788;51.434;6.786;2022-10-16T05:11:14;0.98;;;0.90;;
36855;SDS011;22788;51.434;6.786;2022-10-16T05:13:40;1.25;;;1.15;;
36855;SDS011;22788;51.434;6.786;2022-10-16T05:16:06;2.17;;;1.27;;
36855;SDS011;22788;51.434;6.786;2022-10-16T05:18:32;2.25;;;1.20;;
36855;SDS011;22788;51.434;6.786;2022-10-16T05:20:59;2.08;;;1.15;;
36855;SDS011;22788;51.434;6.786;2022-10-16T05:23:26;2.00;;;1.33;;
36855;SDS011;22788;51.434;6.786;2022-10-16T05:25:53;1.50;;;1.40;;
36855;SDS011;22788;51.434;6.786;2022-10-16T05:28:19;1.60;;;1.33;;
36855;SDS011;22788;51.434;6.786;2022-10-16T05:30:45;1.70;;;1.10;;
36855;SDS011;22788;51.434;6.786;2022-10-16T05:33:11;2.67;;;1.08;;
36855;SDS011;22788;51.434;6.786;2022-10-16T05:35:37;1.77;;;1.27;;
36855;SDS011;22788;51.434;6.786;2022-10-16T05:38:03;1.02;;;0.93;;
36855;SDS011;22788;51.434;6.786;2022-10-16T05:40:30;1.92;;;1.20;;
36855;SDS011;22788;51.434;6.786;2022-10-16T05:42:56;1.83;;;1.20;;
36855;SDS011;22788;51.434;6.786;2022-10-16T05:45:23;3.53;;;1.13;;
36855;SDS011;22788;51.434;6.786;2022-10-16T05:47:49;3.50;;;1.20;;
36855;SDS011;22788;51.434;6.786;2022-10-16T05:50:15;1.58;;;1.33;;
36855;SDS011;22788;51.434;6.786;2022-10-16T05:52:41;2.75;;;1.20;;
36855;SDS011;22788;51.434;6.786;2022-10-16T05:55:07;1.35;;;1.10;;
36855;SDS011;22788;51.434;6.786;2022-10-16T05:57:35;1.08;;;0.98;;
36855;SDS011;22788;51.434;6.786;2022-10-16T06:00:01;1.40;;;1.02;;
36855;SDS011;22788;51.434;6.786;2022-10-16T06:02:28;2.38;;;1.10;;
36855;SDS011;22788;51.434;6.786;2022-10-16T06:04:54;1.67;;;1.35;;
36855;SDS011;22788;51.434;6.786;2022-10-16T06:07:20;1.20;;;1.10;;
36855;SDS011;22788;51.434;6.786;2022-10-16T06:09:47;1.45;;;1.13;;
36855;SDS011;22788;51.434;6.786;2022-10-16T06:12:14;1.40;;;1.10;;
36855;SDS011;22788;51.434;6.786;2022-10-16T06:14:41;1.30;;;1.20;;
36855;SDS011;22788;51.434;6.786;2022-10-16T06:17:07;2.33;;;1.35;;
36855;SDS011;22788;51.434;6.786;2022-10-16T06:19:33;1.58;;;1.27;;
36855;SDS011;22788;51.434;6.786;2022-10-16T06:21:59;1.55;;;1.20;;
36855;SDS011;22788;51.434;6.786;2022-10-16T06:24:25;2.65;;;1.00;;
36855;SDS011;22788;51.434;6.786;2022-10-16T06:26:51;1.38;;;1.27;;
36855;SDS011;22788;51.434;6.786;2022-10-16T06:29:17;1.40;;;1.20;;
36855;SDS011;22788;51.434;6.786;2022-10-16T06:31:45;1.60;;;1.08;;
36855;SDS011;22788;51.434;6.786;2022-10-16T06:34:11;1.50;;;1.13;;
36855;SDS011;22788;51.434;6.786;2022-10-16T06:36:37;1.15;;;1.08;;
36855;SDS011;22788;51.434;6.786;2022-10-16T06:39:04;1.17;;;1.00;;
36855;SDS011;22788;51.434;6.786;2022-10-16T06:41:30;2.42;;;1.50;;
36855;SDS011;22788;51.434;6.786;2022-10-16T06:43:56;1.75;;;1.35;;
36855;SDS011;22788;51.434;6.786;2022-10-16T06:46:23;1.20;;;1.10;;
36855;SDS011;22788;51.434;6.786;2022-10-16T06:48:51;2.22;;;1.10;;
36855;SDS011;22788;51.434;6.786;2022-10-16T06:51:18;2.00;;;1.15;;
36855;SDS011;22788;51.434;6.786;2022-10-16T06:53:45;1.38;;;1.27;;
36855;SDS011;22788;51.434;6.786;2022-10-16T06:56:13;1.35;;;1.10;;
36855;SDS011;22788;51.434;6.786;2022-10-16T06:58:40;1.60;;;1.30;;
36855;SDS011;22788;51.434;6.786;2022-10-16T07:01:07;1.48;;;1.30;;
36855;SDS011;22788;51.434;6.786;2022-10-16T07:03:35;1.20;;;1.10;;
36855;SDS011;22788;51.434;6.786;2022-10-16T07:06:04;1.52;;;1.15;;
36855;SDS011;22788;51.434;6.786;2022-10-16T07:08:31;1.65;;;1.20;;
36855;SDS011;22788;51.434;6.786;2022-10-16T07:10:58;3.08;;;1.20;;
36855;SDS011;22788;51.434;6.786;2022-10-16T07:13:25;1.52;;;1.25;;
36855;SDS011;22788;51.434;6.786;2022-10-16T07:15:52;1.47;;;1.23;;
36855;SDS011;22788;51.434;6.786;2022-10-16T07:18:18;1.63;;;1.15;;
36855;SDS011;22788;51.434;6.786;2022-10-16T07:20:47;1.30;;;1.05;;
36855;SDS011;22788;51.434;6.786;2022-10-16T07:23:14;1.27;;;1.17;;
36855;SDS011;22788;51.434;6.786;2022-10-16T07:25:40;1.20;;;1.10;;
36855;SDS011;22788;51.434;6.786;2022-10-16T07:28:06;1.77;;;1.27;;
36855;SDS011;22788;51.434;6.786;2022-10-16T07:30:34;1.50;;;1.38;;
36855;SDS011;22788;51.434;6.786;2022-10-16T07:33:01;1.90;;;1.10;;
36855;SDS011;22788;51.434;6.786;2022-10-16T07:35:27;5.43;;;1.35;;
36855;SDS011;22788;51.434;6.786;2022-10-16T07:37:53;1.40;;;1.20;;
36855;SDS011;22788;51.434;6.786;2022-10-16T07:40:20;1.30;;;1.13;;
36855;SDS011;22788;51.434;6.786;2022-10-16T07:42:46;1.23;;;1.13;;
36855;SDS011;22788;51.434;6.786;2022-10-16T07:45:15;1.42;;;1.10;;
36855;SDS011;22788;51.434;6.786;2022-10-16T07:47:41;1.88;;;1.35;;
36855;SDS011;22788;51.434;6.786;2022-10-16T07:50:07;1.90;;;1.30;;
36855;SDS011;22788;51.434;6.786;2022-10-16T07:52:34;1.25;;;1.15;;
36855;SDS011;22788;51.434;6.786;2022-10-16T07:55:00;1.40;;;1.30;;
36855;SDS011;22788;51.434;6.786;2022-10-16T07:57:27;2.53;;;1.45;;
36855;SDS011;22788;51.434;6.786;2022-10-16T07:59:53;2.55;;;1.20;;
36855;SDS011;22788;51.434;6.786;2022-10-16T08:04:53;1.25;;;1.15;;
36855;SDS011;22788;51.434;6.786;2022-10-16T08:07:19;1.35;;;1.25;;
36855;SDS011;22788;51.434;6.786;2022-10-16T08:09:48;1.45;;;1.35;;
36855;SDS011;22788;51.434;6.786;2022-10-16T08:12:15;1.13;;;1.08;;
36855;SDS011;22788;51.434;6.786;2022-10-16T08:14:43;1.88;;;1.40;;
36855;SDS011;22788;51.434;6.786;2022-10-16T08:17:09;2.28;;;1.20;;
36855;SDS011;22788;51.434;6.786;2022-10-16T08:19:35;3.17;;;1.10;;
36855;SDS011;22788;51.434;6.786;2022-10-16T08:22:01;1.38;;;1.25;;
36855;SDS011;22788;51.434;6.786;2022-10-16T08:24:27;1.73;;;1.50;;
36855;SDS011;22788;51.434;6.786;2022-10-16T08:26:53;1.55;;;1.20;;
36855;SDS011;22788;51.434;6.786;2022-10-16T08:29:19;1.77;;;1.38;;
36855;SDS011;22788;51.434;6.786;2022-10-16T08:31:46;1.77;;;1.13;;
36855;SDS011;22788;51.434;6.786;2022-10-16T08:34:12;2.00;;;1.58;;
36855;SDS011;22788;51.434;6.786;2022-10-16T08:36:39;2.90;;;1.40;;
36855;SDS011;22788;51.434;6.786;2022-10-16T08:39:05;1.30;;;1.20;;
36855;SDS011;22788;51.434;6.786;2022-10-16T08:41:39;1.55;;;1.35;;
36855;SDS011;22788;51.434;6.786;2022-10-16T08:44:35;3.97;;;1.80;;
36855;SDS011;22788;51.434;6.786;2022-10-16T08:47:30;2.00;;;1.42;;
36855;SDS011;22788;51.434;6.786;2022-10-16T08:50:08;1.77;;;1.30;;
36855;SDS011;22788;51.434;6.786;2022-10-16T08:52:38;1.65;;;1.35;;
36855;SDS011;22788;51.434;6.786;2022-10-16T08:55:08;2.38;;;1.10;;
36855;SDS011;22788;51.434;6.786;2022-10-16T08:57:49;1.75;;;1.25;;
36855;SDS011;22788;51.434;6.786;2022-10-16T09:00:16;2.47;;;1.92;;
36855;SDS011;22788;51.434;6.786;2022-10-16T09:02:45;3.08;;;1.27;;
36855;SDS011;22788;51.434;6.786;2022-10-16T09:05:22;2.80;;;1.50;;
36855;SDS011;22788;51.434;6.786;2022-10-16T09:07:57;1.70;;;1.10;;
36855;SDS011;22788;51.434;6.786;2022-10-16T09:10:32;2.50;;;1.20;;
36855;SDS011;22788;51.434;6.786;2022-10-16T09:13:09;2.22;;;1.20;;
36855;SDS011;22788;51.434;6.786;2022-10-16T09:15:43;1.58;;;1.25;;
36855;SDS011;22788;51.434;6.786;2022-10-16T09:18:20;1.25;;;1.15;;
36855;SDS011;22788;51.434;6.786;2022-10-16T09:20:53;1.55;;;1.20;;
36855;SDS011;22788;51.434;6.786;2022-10-16T09:23:26;1.52;;;1.23;;
36855;SDS011;22788;51.434;6.786;2022-10-16T09:25:54;1.75;;;1.02;;
36855;SDS011;22788;51.434;6.786;2022-10-16T09:28:23;3.90;;;1.48;;
36855;SDS011;22788;51.434;6.786;2022-10-16T09:30:49;1.52;;;1.25;;
36855;SDS011;22788;51.434;6.786;2022-10-16T09:33:16;1.30;;;1.20;;
36855;SDS011;22788;51.434;6.786;2022-10-16T09:35:48;1.85;;;1.20;;
36855;SDS011;22788;51.434;6.786;2022-10-16T09:38:23;1.73;;;1.17;;
36855;SDS011;22788;51.434;6.786;2022-10-16T09:40:50;1.52;;;1.40;;
36855;SDS011;22788;51.434;6.786;2022-10-16T09:43:20;3.13;;;1.30;;
36855;SDS011;22788;51.434;6.786;2022-10-16T09:45:55;2.35;;;1.40;;
36855;SDS011;22788;51.434;6.786;2022-10-16T09:48:25;1.73;;;1.30;;
36855;SDS011;22788;51.434;6.786;2022-10-16T09:50:55;2.83;;;1.60;;
36855;SDS011;22788;51.434;6.786;2022-10-16T09:53:23;2.25;;;1.27;;
36855;SDS011;22788;51.434;6.786;2022-10-16T09:55:49;1.42;;;1.20;;
36855;SDS011;22788;51.434;6.786;2022-10-16T09:58:15;2.33;;;1.25;;
36855;SDS011;22788;51.434;6.786;2022-10-16T10:00:41;1.73;;;1.13;;
36855;SDS011;22788;51.434;6.786;2022-10-16T10:03:15;2.95;;;1.30;;
36855;SDS011;22788;51.434;6.786;2022-10-16T10:06:06;1.92;;;1.27;;
36855;SDS011;22788;51.434;6.786;2022-10-16T10:08:41;2.38;;;2.00;;
36855;SDS011;22788;51.434;6.786;2022-10-16T10:11:18;2.53;;;1.70;;
36855;SDS011;22788;51.434;6.786;2022-10-16T10:14:06;5.68;;;1.88;;
36855;SDS011;22788;51.434;6.786;2022-10-16T10:16:40;3.10;;;1.45;;
36855;SDS011;22788;51.434;6.786;2022-10-16T10:19:09;6.10;;;1.63;;
36855;SDS011;22788;51.434;6.786;2022-10-16T10:21:40;3.97;;;1.38;;
36855;SDS011;22788;51.434;6.786;2022-10-16T10:24:08;1.50;;;1.40;;
36855;SDS011;22788;51.434;6.786;2022-10-16T10:26:38;3.00;;;1.50;;
36855;SDS011;22788;51.434;6.786;2022-10-16T10:29:11;3.42;;;1.42;;
36855;SDS011;22788;51.434;6.786;2022-10-16T10:31:47;2.30;;;1.35;;
36855;SDS011;22788;51.434;6.786;2022-10-16T10:34:25;3.00;;;1.20;;
36855;SDS011;22788;51.434;6.786;2022-10-16T10:37:02;2.38;;;1.20;;
36855;SDS011;22788;51.434;6.786;2022-10-16T10:39:35;2.27;;;1.23;;
36855;SDS011;22788;51.434;6.786;2022-10-16T10:42:12;1.20;;;1.00;;
36855;SDS011;22788;51.434;6.786;2022-10-16T10:47:40;4.93;;;1.20;;
36855;SDS011;22788;51.434;6.786;2022-10-16T10:50:17;1.42;;;1.30;;
36855;SDS011;22788;51.434;6.786;2022-10-16T10:52:55;2.75;;;1.27;;
36855;SDS011;22788;51.434;6.786;2022-10-16T10:55:27;3.00;;;1.30;;
36855;SDS011;22788;51.434;6.786;2022-10-16T10:58:04;2.70;;;1.40;;
36855;SDS011;22788;51.434;6.786;2022-10-16T11:00:50;2.60;;;1.10;;
36855;SDS011;22788;51.434;6.786;2022-10-16T11:03:27;1.40;;;1.25;;
36855;SDS011;22788;51.434;6.786;2022-10-16T11:06:07;2.65;;;1.02;;
36855;SDS011;22788;51.434;6.786;2022-10-16T11:08:37;3.47;;;1.42;;
36855;SDS011;22788;51.434;6.786;2022-10-16T11:11:07;2.13;;;1.00;;
36855;SDS011;22788;51.434;6.786;2022-10-16T11:13:40;1.92;;;1.05;;
36855;SDS011;22788;51.434;6.786;2022-10-16T11:16:11;1.40;;;1.08;;
36855;SDS011;22788;51.434;6.786;2022-10-16T11:18:44;3.50;;;1.40;;
36855;SDS011;22788;51.434;6.786;2022-10-16T11:21:17;1.52;;;1.30;;
36855;SDS011;22788;51.434;6.786;2022-10-16T11:23:46;1.77;;;1.35;;
36855;SDS011;22788;51.434;6.786;2022-10-16T11:26:19;3.20;;;1.30;;
36855;SDS011;22788;51.434;6.786;2022-10-16T11:28:47;4.60;;;1.10;;
36855;SDS011;22788;51.434;6.786;2022-10-16T11:31:17;3.03;;;1.20;;
36855;SDS011;22788;51.434;6.786;2022-10-16T11:33:49;4.32;;;1.25;;
36855;SDS011;22788;51.434;6.786;2022-10-16T11:36:22;3.13;;;1.50;;
36855;SDS011;22788;51.434;6.786;2022-10-16T11:38:53;1.23;;;0.98;;
36855;SDS011;22788;51.434;6.786;2022-10-16T11:41:27;3.80;;;1.20;;
36855;SDS011;22788;51.434;6.786;2022-10-16T11:44:02;5.78;;;1.20;;
36855;SDS011;22788;51.434;6.786;2022-10-16T11:46:40;2.35;;;1.33;;
36855;SDS011;22788;51.434;6.786;2022-10-16T11:49:11;2.20;;;1.30;;
36855;SDS011;22788;51.434;6.786;2022-10-16T11:51:43;3.03;;;1.60;;
36855;SDS011;22788;51.434;6.786;2022-10-16T11:54:16;1.98;;;1.40;;
36855;SDS011;22788;51.434;6.786;2022-10-16T11:56:46;2.05;;;1.27;;
36855;SDS011;22788;51.434;6.786;2022-10-16T11:59:15;1.10;;;1.00;;
36855;SDS011;22788;51.434;6.786;2022-10-16T12:01:47;1.17;;;1.00;;
36855;SDS011;22788;51.434;6.786;2022-10-16T12:04:18;2.15;;;1.27;;
36855;SDS011;22788;51.434;6.786;2022-10-16T12:06:54;6.20;;;1.58;;
36855;SDS011;22788;51.434;6.786;2022-10-16T12:09:24;2.05;;;1.27;;
36855;SDS011;22788;51.434;6.786;2022-10-16T12:11:52;2.40;;;1.35;;
36855;SDS011;22788;51.434;6.786;2022-10-16T12:14:33;2.45;;;1.13;;
36855;SDS011;22788;51.434;6.786;2022-10-16T12:17:03;1.10;;;1.00;;
36855;SDS011;22788;51.434;6.786;2022-10-16T12:19:56;1.67;;;1.00;;
36855;SDS011;22788;51.434;6.786;2022-10-16T12:22:25;2.15;;;1.10;;
36855;SDS011;22788;51.434;6.786;2022-10-16T12:24:54;1.20;;;1.10;;
36855;SDS011;22788;51.434;6.786;2022-10-16T12:27:22;3.10;;;1.10;;
36855;SDS011;22788;51.434;6.786;2022-10-16T12:29:54;2.83;;;1.05;;
36855;SDS011;22788;51.434;6.786;2022-10-16T12:32:23;2.03;;;1.23;;
36855;SDS011;22788;51.434;6.786;2022-10-16T12:34:54;1.65;;;0.90;;
36855;SDS011;22788;51.434;6.786;2022-10-16T12:37:21;2.22;;;1.13;;
36855;SDS011;22788;51.434;6.786;2022-10-16T12:39:51;7.15;;;1.30;;
36855;SDS011;22788;51.434;6.786;2022-10-16T12:42:31;3.25;;;1.10;;
36855;SDS011;22788;51.434;6.786;2022-10-16T12:44:58;3.10;;;1.33;;
36855;SDS011;22788;51.434;6.786;2022-10-16T12:47:35;6.05;;;1.27;;
36855;SDS011;22788;51.434;6.786;2022-10-16T12:50:03;3.35;;;1.00;;
36855;SDS011;22788;51.434;6.786;2022-10-16T12:52:48;1.92;;;1.50;;
36855;SDS011;22788;51.434;6.786;2022-10-16T12:55:15;5.68;;;1.52;;
36855;SDS011;22788;51.434;6.786;2022-10-16T12:57:44;5.18;;;1.40;;
36855;SDS011;22788;51.434;6.786;2022-10-16T13:00:24;4.50;;;1.35;;
36855;SDS011;22788;51.434;6.786;2022-10-16T13:06:08;3.25;;;1.60;;
36855;SDS011;22788;51.434;6.786;2022-10-16T13:08:46;2.58;;;1.40;;
36855;SDS011;22788;51.434;6.786;2022-10-16T13:11:24;2.28;;;1.50;;
36855;SDS011;22788;51.434;6.786;2022-10-16T13:17:05;4.40;;;1.63;;
36855;SDS011;22788;51.434;6.786;2022-10-16T13:19:38;5.07;;;1.70;;
36855;SDS011;22788;51.434;6.786;2022-10-16T13:22:13;4.13;;;1.60;;
36855;SDS011;22788;51.434;6.786;2022-10-16T13:24:49;3.90;;;1.60;;
36855;SDS011;22788;51.434;6.786;2022-10-16T13:27:31;2.47;;;1.42;;
36855;SDS011;22788;51.434;6.786;2022-10-16T13:30:09;3.80;;;1.27;;
36855;SDS011;22788;51.434;6.786;2022-10-16T13:32:38;4.25;;;1.48;;
36855;SDS011;22788;51.434;6.786;2022-10-16T13:35:15;5.05;;;1.70;;
36855;SDS011;22788;51.434;6.786;2022-10-16T13:37:45;5.18;;;1.67;;
36855;SDS011;22788;51.434;6.786;2022-10-16T13:40:13;5.63;;;1.60;;
36855;SDS011;22788;51.434;6.786;2022-10-16T13:42:46;4.80;;;1.50;;
36855;SDS011;22788;51.434;6.786;2022-10-16T13:45:18;2.97;;;1.38;;
36855;SDS011;22788;51.434;6.786;2022-10-16T13:47:45;5.05;;;1.65;;
36855;SDS011;22788;51.434;6.786;2022-10-16T13:50:12;3.00;;;1.35;;
36855;SDS011;22788;51.434;6.786;2022-10-16T13:52:40;3.92;;;1.20;;
36855;SDS011;22788;51.434;6.786;2022-10-16T13:55:09;2.55;;;1.40;;
36855;SDS011;22788;51.434;6.786;2022-10-16T13:57:36;4.10;;;1.23;;
36855;SDS011;22788;51.434;6.786;2022-10-16T14:00:04;10.50;;;1.58;;
36855;SDS011;22788;51.434;6.786;2022-10-16T14:02:43;3.28;;;1.20;;
36855;SDS011;22788;51.434;6.786;2022-10-16T14:05:10;2.00;;;1.05;;
36855;SDS011;22788;51.434;6.786;2022-10-16T14:07:36;3.17;;;1.08;;
36855;SDS011;22788;51.434;6.786;2022-10-16T14:10:04;1.58;;;1.02;;
36855;SDS011;22788;51.434;6.786;2022-10-16T14:12:32;3.50;;;1.13;;
36855;SDS011;22788;51.434;6.786;2022-10-16T14:14:59;2.38;;;1.42;;
36855;SDS011;22788;51.434;6.786;2022-10-16T14:17:27;2.78;;;1.20;;
36855;SDS011;22788;51.434;6.786;2022-10-16T14:19:57;1.05;;;0.95;;
36855;SDS011;22788;51.434;6.786;2022-10-16T14:22:27;10.70;;;1.25;;
36855;SDS011;22788;51.434;6.786;2022-10-16T14:24:55;2.05;;;1.05;;
36855;SDS011;22788;51.434;6.786;2022-10-16T14:27:24;3.65;;;0.98;;
36855;SDS011;22788;51.434;6.786;2022-10-16T14:30:11;4.30;;;1.02;;
36855;SDS011;22788;51.434;6.786;2022-10-16T14:32:41;2.92;;;1.00;;
36855;SDS011;22788;51.434;6.786;2022-10-16T14:35:25;2.75;;;1.10;;
36855;SDS011;22788;51.434;6.786;2022-10-16T14:37:53;1.02;;;1.00;;
36855;SDS011;22788;51.434;6.786;2022-10-16T14:40:21;2.80;;;1.00;;
36855;SDS011;22788;51.434;6.786;2022-10-16T14:42:49;3.17;;;1.10;;
36855;SDS011;22788;51.434;6.786;2022-10-16T14:45:18;3.83;;;0.95;;
36855;SDS011;22788;51.434;6.786;2022-10-16T14:47:52;4.83;;;1.60;;
36855;SDS011;22788;51.434;6.786;2022-10-16T14:50:19;6.43;;;1.45;;
36855;SDS011;22788;51.434;6.786;2022-10-16T14:52:45;5.93;;;1.48;;
36855;SDS011;22788;51.434;6.786;2022-10-16T14:55:11;4.60;;;1.40;;
36855;SDS011;22788;51.434;6.786;2022-10-16T14:57:38;3.70;;;1.50;;
36855;SDS011;22788;51.434;6.786;2022-10-16T15:00:08;6.13;;;1.80;;
36855;SDS011;22788;51.434;6.786;2022-10-16T15:02:40;6.18;;;1.58;;
36855;SDS011;22788;51.434;6.786;2022-10-16T15:05:12;1.70;;;1.10;;
36855;SDS011;22788;51.434;6.786;2022-10-16T15:07:40;1.80;;;1.10;;
36855;SDS011;22788;51.434;6.786;2022-10-16T15:10:07;4.07;;;1.65;;
36855;SDS011;22788;51.434;6.786;2022-10-16T15:12:33;2.55;;;1.42;;
36855;SDS011;22788;51.434;6.786;2022-10-16T15:14:59;3.10;;;1.13;;